Time;durP1;ratioP1;P1;durP2;ratioP2;P2;SDS_P1;SDS_P2;PMS_P1;PMS_P2;Temp;Humidity;BMP_temperature;BMP_pressure;BME280_temperature;BME280_humidity;BME280_pressure;Samples;Min_cycle;Max_cycle;Signal;HPM_P1;HPM_P2
2023/01/28 00:02:26;;;;;;;7.10;5.17;;;;;;;;;;5054053;28;20308;-30
2023/01/28 00:04:53;;;;;;;9.53;5.83;;;;;;;;;;5054490;28;20301;-27
2023/01/28 00:07:20;;;;;;;8.57;5.77;;;;;;;;;;5053599;28;20221;-28
2023/01/28 00:09:49;;;;;;;9.43;6.43;;;;;;;;;;5053903;28;20201;-30
2023/01/28 00:12:16;;;;;;;9.80;6.87;;;;;;;;;;5053815;28;20447;-28
2023/01/28 00:14:45;;;;;;;9.00;5.83;;;;;;;;;;5052486;28;20252;-29
2023/01/28 00:17:12;;;;;;;8.27;5.80;;;;;;;;;;5053804;28;20264;-30
2023/01/28 00:19:39;;;;;;;10.53;6.30;;;;;;;;;;5054209;28;20243;-32
2023/01/28 00:22:06;;;;;;;8.70;6.37;;;;;;;;;;5053763;28;20563;-33
2023/01/28 00:24:33;;;;;;;7.80;6.13;;;;;;;;;;5052899;28;20222;-28
2023/01/28 00:27:02;;;;;;;7.60;5.50;;;;;;;;;;5054140;28;20206;-31
2023/01/28 00:29:29;;;;;;;9.80;6.10;;;;;;;;;;5052451;28;20214;-29
2023/01/28 00:31:56;;;;;;;7.33;5.47;;;;;;;;;;5053558;28;20205;-30
2023/01/28 00:34:23;;;;;;;9.03;5.57;;;;;;;;;;5053194;28;20229;-28
2023/01/28 00:36:56;;;;;;;8.50;5.63;;;;;;;;;;5053325;28;20581;-28
2023/01/28 00:39:23;;;;;;;8.77;6.00;;;;;;;;;;5051146;28;20218;-30
2023/01/28 00:41:51;;;;;;;8.37;5.90;;;;;;;;;;5051977;28;20210;-32
2023/01/28 00:44:19;;;;;;;8.60;5.73;;;;;;;;;;5050710;28;20228;-33
2023/01/28 00:46:46;;;;;;;7.70;5.37;;;;;;;;;;5052813;28;20674;-31
2023/01/28 00:49:14;;;;;;;8.20;5.13;;;;;;;;;;5053819;28;20212;-28
2023/01/28 00:51:41;;;;;;;9.63;5.70;;;;;;;;;;5053686;28;20460;-32
2023/01/28 00:54:08;;;;;;;9.67;5.53;;;;;;;;;;5051681;28;20238;-29
2023/01/28 00:56:36;;;;;;;9.53;5.90;;;;;;;;;;5053790;28;20228;-30
2023/01/28 00:59:03;;;;;;;8.70;5.40;;;;;;;;;;5052439;28;20206;-29
2023/01/28 01:01:32;;;;;;;10.40;6.97;;;;;;;;;;5052768;28;20201;-31
2023/01/28 01:04:02;;;;;;;9.00;5.10;;;;;;;;;;5053439;28;20563;-27
2023/01/28 01:06:31;;;;;;;9.87;5.90;;;;;;;;;;5053645;28;20194;-32
2023/01/28 01:08:58;;;;;;;7.87;5.50;;;;;;;;;;5051991;28;20660;-33
2023/01/28 01:11:25;;;;;;;9.20;5.33;;;;;;;;;;5053197;28;20208;-30
2023/01/28 01:13:53;;;;;;;7.87;5.20;;;;;;;;;;5052988;28;20241;-30
2023/01/28 01:16:21;;;;;;;8.90;5.50;;;;;;;;;;5052168;28;20212;-33
2023/01/28 01:18:54;;;;;;;9.03;5.67;;;;;;;;;;5052917;28;20212;-28
2023/01/28 01:21:22;;;;;;;8.40;5.77;;;;;;;;;;5053292;28;20194;-30
2023/01/28 01:23:49;;;;;;;7.53;5.43;;;;;;;;;;5051665;28;20393;-31
2023/01/28 01:26:16;;;;;;;10.20;5.57;;;;;;;;;;5052820;28;20205;-31
2023/01/28 01:28:44;;;;;;;8.10;5.63;;;;;;;;;;5052892;28;20206;-32
2023/01/28 01:31:13;;;;;;;8.43;5.80;;;;;;;;;;5051682;28;20209;-30
2023/01/28 01:33:40;;;;;;;9.57;6.03;;;;;;;;;;5052005;28;20241;-29
2023/01/28 01:36:09;;;;;;;8.30;5.70;;;;;;;;;;5052972;28;20641;-28
2023/01/28 01:38:37;;;;;;;10.67;6.03;;;;;;;;;;5051812;28;20216;-29
2023/01/28 01:41:05;;;;;;;7.30;5.13;;;;;;;;;;5052347;28;20212;-30
2023/01/28 01:43:48;;;;;;;8.50;5.27;;;;;;;;;;5052345;28;20225;-33
2023/01/28 01:46:17;;;;;;;9.23;5.27;;;;;;;;;;5051480;28;20208;-33
2023/01/28 01:48:45;;;;;;;7.17;5.17;;;;;;;;;;5052115;28;20676;-31
2023/01/28 01:51:16;;;;;;;6.77;5.13;;;;;;;;;;5052731;28;20575;-32
2023/01/28 01:53:45;;;;;;;8.37;5.47;;;;;;;;;;5051113;28;20366;-27
2023/01/28 01:56:15;;;;;;;8.80;5.37;;;;;;;;;;5051655;28;20399;-33
2023/01/28 01:58:43;;;;;;;9.77;6.33;;;;;;;;;;5052048;28;20589;-26
2023/01/28 02:01:10;;;;;;;7.70;5.37;;;;;;;;;;5048992;28;20202;-30
2023/01/28 02:03:41;;;;;;;7.63;4.67;;;;;;;;;;5051503;28;20233;-32
2023/01/28 02:06:09;;;;;;;5.53;4.53;;;;;;;;;;5052330;28;20206;-29
2023/01/28 02:08:37;;;;;;;7.00;5.63;;;;;;;;;;5052390;28;20206;-28
2023/01/28 02:11:06;;;;;;;7.33;5.03;;;;;;;;;;5050304;28;20205;-30
2023/01/28 02:13:37;;;;;;;7.20;5.07;;;;;;;;;;5051805;28;20226;-31
2023/01/28 02:16:05;;;;;;;8.10;5.47;;;;;;;;;;5050539;28;20671;-31
2023/01/28 02:18:32;;;;;;;7.37;5.07;;;;;;;;;;5052014;28;20212;-30
2023/01/28 02:21:11;;;;;;;8.53;4.90;;;;;;;;;;5051705;28;20642;-30
2023/01/28 02:23:45;;;;;;;8.30;5.37;;;;;;;;;;5049960;28;20229;-30
2023/01/28 02:26:33;;;;;;;7.47;4.83;;;;;;;;;;5051976;28;20248;-30
2023/01/28 02:29:05;;;;;;;7.03;4.77;;;;;;;;;;5025848;28;20213;-32
2023/01/28 02:31:33;;;;;;;6.37;4.20;;;;;;;;;;5051370;28;20637;-31
2023/01/28 02:34:04;;;;;;;7.00;4.20;;;;;;;;;;5051875;28;20240;-30
2023/01/28 02:36:36;;;;;;;7.20;4.30;;;;;;;;;;5052354;28;20194;-30
2023/01/28 02:39:06;;;;;;;7.20;4.63;;;;;;;;;;5049767;28;20190;-30
2023/01/28 02:41:35;;;;;;;7.53;4.50;;;;;;;;;;5051600;28;20202;-29
2023/01/28 02:44:04;;;;;;;7.63;4.93;;;;;;;;;;5050603;28;20229;-31
2023/01/28 02:49:23;;;;;;;8.30;5.37;;;;;;;;;;5051199;28;20189;-32
2023/01/28 02:52:04;;;;;;;7.63;4.10;;;;;;;;;;5051484;28;20202;-32
2023/01/28 02:54:35;;;;;;;7.90;4.40;;;;;;;;;;5050127;28;20237;-29
2023/01/28 02:57:04;;;;;;;7.27;4.67;;;;;;;;;;5050951;28;20217;-29
2023/01/28 02:59:35;;;;;;;7.20;4.30;;;;;;;;;;5049919;28;20206;-27
2023/01/28 03:02:08;;;;;;;8.80;4.70;;;;;;;;;;5051004;28;20190;-29
2023/01/28 03:04:37;;;;;;;7.50;5.50;;;;;;;;;;5051411;28;20244;-32
2023/01/28 03:07:05;;;;;;;7.80;5.07;;;;;;;;;;5049224;28;20225;-32
2023/01/28 03:09:34;;;;;;;7.73;5.30;;;;;;;;;;5050759;28;20213;-26
2023/01/28 03:37:01;;;;;;;8.03;5.00;;;;;;;;;;5051543;28;20189;-31
2023/01/28 03:39:29;;;;;;;5.43;4.37;;;;;;;;;;5049342;28;20206;-30
2023/01/28 03:41:57;;;;;;;6.87;4.90;;;;;;;;;;5050662;28;20668;-29
2023/01/28 03:47:11;;;;;;;7.97;5.00;;;;;;;;;;5050933;28;20185;-32
2023/01/28 03:49:39;;;;;;;7.87;4.20;;;;;;;;;;5051007;28;20217;-28
2023/01/28 03:52:06;;;;;;;5.93;4.50;;;;;;;;;;5050563;28;20210;-27
2023/01/28 03:54:33;;;;;;;6.67;4.40;;;;;;;;;;5049365;28;20243;-31
2023/01/28 03:57:00;;;;;;;8.13;5.23;;;;;;;;;;5050347;28;20660;-30
2023/01/28 03:59:27;;;;;;;8.30;4.53;;;;;;;;;;5049132;28;20204;-31
2023/01/28 04:01:55;;;;;;;6.87;4.87;;;;;;;;;;5050305;28;20212;-27
2023/01/28 04:04:23;;;;;;;8.07;5.03;;;;;;;;;;5050683;28;20222;-30
2023/01/28 04:06:51;;;;;;;8.20;4.63;;;;;;;;;;5050896;28;20739;-31
2023/01/28 04:09:18;;;;;;;7.13;5.07;;;;;;;;;;5049149;28;20275;-28
2023/01/28 04:11:45;;;;;;;6.37;4.70;;;;;;;;;;5050667;28;20206;-31
2023/01/28 04:14:14;;;;;;;5.53;4.30;;;;;;;;;;5048893;28;20222;-32
2023/01/28 04:16:41;;;;;;;5.53;4.13;;;;;;;;;;5050762;28;20229;-33
2023/01/28 04:19:08;;;;;;;6.73;4.37;;;;;;;;;;5054164;28;20661;-31
2023/01/28 04:21:37;;;;;;;6.63;4.90;;;;;;;;;;5054361;28;20208;-32
2023/01/28 04:24:04;;;;;;;5.57;4.53;;;;;;;;;;5052517;28;20222;-32
2023/01/28 04:26:31;;;;;;;6.20;4.20;;;;;;;;;;5053820;28;20202;-31
2023/01/28 04:28:58;;;;;;;7.83;4.80;;;;;;;;;;5053721;28;20217;-33
2023/01/28 04:31:25;;;;;;;6.23;4.60;;;;;;;;;;5052726;28;20719;-31
2023/01/28 04:33:53;;;;;;;7.33;4.70;;;;;;;;;;5053855;28;20281;-30
2023/01/28 04:36:20;;;;;;;9.73;4.20;;;;;;;;;;5053722;28;20722;-30
2023/01/28 04:38:48;;;;;;;7.50;4.93;;;;;;;;;;5052057;28;20206;-32
2023/01/28 04:41:15;;;;;;;6.43;4.13;;;;;;;;;;5053842;28;20206;-31
2023/01/28 04:43:42;;;;;;;4.83;3.47;;;;;;;;;;5053819;28;20225;-31
2023/01/28 04:46:10;;;;;;;6.30;4.80;;;;;;;;;;5051889;28;20202;-30
2023/01/28 04:48:37;;;;;;;5.97;4.70;;;;;;;;;;5053575;28;20210;-30
2023/01/28 04:51:05;;;;;;;5.43;4.07;;;;;;;;;;5054020;28;20583;-29
2023/01/28 04:53:32;;;;;;;8.13;4.87;;;;;;;;;;5053323;28;20221;-28
2023/01/28 04:56:01;;;;;;;7.13;4.90;;;;;;;;;;5051781;28;20229;-32
2023/01/28 04:58:28;;;;;;;6.33;4.10;;;;;;;;;;5053495;28;20201;-32
2023/01/28 05:00:56;;;;;;;6.37;5.00;;;;;;;;;;5051627;28;20292;-29
2023/01/28 05:03:23;;;;;;;6.73;4.40;;;;;;;;;;5053033;28;20226;-28
2023/01/28 05:05:50;;;;;;;5.77;4.13;;;;;;;;;;5053504;28;20545;-31
2023/01/28 05:08:17;;;;;;;6.43;4.23;;;;;;;;;;5052305;28;20221;-33
2023/01/28 05:10:45;;;;;;;5.43;3.67;;;;;;;;;;5052300;28;20661;-33
2023/01/28 05:13:13;;;;;;;6.47;4.30;;;;;;;;;;5053107;28;20581;-31
2023/01/28 05:15:40;;;;;;;6.27;4.60;;;;;;;;;;5051976;28;20227;-31
2023/01/28 05:18:07;;;;;;;5.70;4.50;;;;;;;;;;5053335;28;20209;-28
2023/01/28 05:20:34;;;;;;;5.80;4.03;;;;;;;;;;5052902;28;20202;-28
2023/01/28 05:23:01;;;;;;;5.70;4.43;;;;;;;;;;5051828;28;20225;-32
2023/01/28 05:25:29;;;;;;;6.23;4.67;;;;;;;;;;5052535;28;20660;-30
2023/01/28 05:27:56;;;;;;;5.40;4.40;;;;;;;;;;5052851;28;20674;-30
2023/01/28 05:30:24;;;;;;;5.60;3.37;;;;;;;;;;5053027;28;20232;-30
2023/01/28 05:32:55;;;;;;;6.20;4.23;;;;;;;;;;5054883;28;20238;-30
2023/01/28 05:35:23;;;;;;;6.23;4.07;;;;;;;;;;5054076;28;20218;-29
2023/01/28 05:37:50;;;;;;;6.83;4.50;;;;;;;;;;5053838;28;20202;-30
2023/01/28 05:40:17;;;;;;;7.60;4.53;;;;;;;;;;5051241;28;20672;-29
2023/01/28 05:42:44;;;;;;;6.03;4.10;;;;;;;;;;5051771;28;20690;-30
2023/01/28 05:45:11;;;;;;;6.17;4.20;;;;;;;;;;5051345;28;20217;-27
2023/01/28 05:47:40;;;;;;;6.33;4.47;;;;;;;;;;5052057;28;20553;-29
2023/01/28 05:50:08;;;;;;;5.97;4.40;;;;;;;;;;5052754;28;20209;-29
2023/01/28 05:52:35;;;;;;;5.43;3.70;;;;;;;;;;5050684;28;20213;-33
2023/01/28 05:55:03;;;;;;;7.53;4.73;;;;;;;;;;5052040;28;20232;-32
2023/01/28 05:57:30;;;;;;;8.03;4.57;;;;;;;;;;5052004;28;20302;-31
2023/01/28 05:59:57;;;;;;;6.73;4.23;;;;;;;;;;5050337;28;20212;-30
2023/01/28 06:02:24;;;;;;;4.37;3.43;;;;;;;;;;5050919;28;20212;-30
2023/01/28 06:04:52;;;;;;;4.13;3.60;;;;;;;;;;5052014;28;20230;-29
2023/01/28 06:07:19;;;;;;;4.50;3.63;;;;;;;;;;5051233;28;20296;-31
2023/01/28 06:09:47;;;;;;;8.87;4.50;;;;;;;;;;5051736;28;20212;-30
2023/01/28 06:12:14;;;;;;;8.27;4.47;;;;;;;;;;5051977;28;20666;-29
2023/01/28 06:14:41;;;;;;;6.30;4.23;;;;;;;;;;5050728;28;20222;-28
2023/01/28 06:17:09;;;;;;;5.47;4.37;;;;;;;;;;5051871;28;20228;-29
2023/01/28 06:19:36;;;;;;;6.13;4.60;;;;;;;;;;5052142;28;20206;-30
2023/01/28 06:22:04;;;;;;;6.00;4.67;;;;;;;;;;5051996;28;20241;-29
2023/01/28 06:24:31;;;;;;;6.73;5.03;;;;;;;;;;5050439;28;20226;-33
2023/01/28 06:26:58;;;;;;;8.27;4.67;;;;;;;;;;5052161;28;20206;-29
2023/01/28 06:29:26;;;;;;;8.10;4.93;;;;;;;;;;5050140;28;20220;-31
2023/01/28 06:31:53;;;;;;;8.97;5.07;;;;;;;;;;5051224;28;20206;-31
2023/01/28 06:34:20;;;;;;;8.40;6.13;;;;;;;;;;5051826;28;20321;-31
2023/01/28 06:36:47;;;;;;;5.03;4.20;;;;;;;;;;5051822;28;20357;-31
2023/01/28 06:39:16;;;;;;;5.17;4.03;;;;;;;;;;5049992;28;20205;-30
2023/01/28 06:41:43;;;;;;;5.27;4.03;;;;;;;;;;5049213;28;20213;-28
2023/01/28 06:44:10;;;;;;;7.23;6.13;;;;;;;;;;5049477;28;20226;-27
2023/01/28 06:49:41;;;;;;;5.93;4.40;;;;;;;;;;5050382;28;20211;-32
2023/01/28 06:52:08;;;;;;;7.80;4.77;;;;;;;;;;5050872;28;20210;-32
2023/01/28 06:54:36;;;;;;;7.13;4.63;;;;;;;;;;5051159;28;20225;-32
2023/01/28 06:57:03;;;;;;;8.00;4.57;;;;;;;;;;5049059;28;20584;-33
2023/01/28 06:59:31;;;;;;;5.90;3.97;;;;;;;;;;5049236;28;20232;-30
2023/01/28 07:01:58;;;;;;;7.47;4.70;;;;;;;;;;5051094;28;20268;-31
2023/01/28 07:04:25;;;;;;;6.10;4.47;;;;;;;;;;5050763;28;20233;-30
2023/01/28 07:06:52;;;;;;;6.53;4.37;;;;;;;;;;5050908;28;20198;-26
2023/01/28 07:09:19;;;;;;;8.57;5.63;;;;;;;;;;5049373;28;20213;-31
2023/01/28 07:11:47;;;;;;;7.13;4.27;;;;;;;;;;5050547;28;20205;-28
2023/01/28 07:14:14;;;;;;;7.27;4.40;;;;;;;;;;5049208;28;20233;-29
2023/01/28 07:16:41;;;;;;;6.40;4.63;;;;;;;;;;5050184;28;20222;-33
2023/01/28 07:19:09;;;;;;;6.70;4.57;;;;;;;;;;5050764;28;20202;-30
2023/01/28 07:21:36;;;;;;;6.73;4.20;;;;;;;;;;5050406;28;20702;-27
2023/01/28 07:24:04;;;;;;;4.80;4.20;;;;;;;;;;5048863;28;20229;-29
2023/01/28 07:26:31;;;;;;;6.60;4.57;;;;;;;;;;5050878;28;20283;-27
2023/01/28 07:29:00;;;;;;;7.20;4.57;;;;;;;;;;5052125;28;20296;-31
2023/01/28 07:31:27;;;;;;;5.53;4.17;;;;;;;;;;5051140;28;20217;-29
2023/01/28 07:46:39;;;;;;;6.20;4.60;;;;;;;;;;5051861;28;20222;-34
2023/01/28 07:49:06;;;;;;;6.73;4.80;;;;;;;;;;5053420;28;20293;-32
2023/01/28 07:51:33;;;;;;;6.37;4.40;;;;;;;;;;5053866;28;20202;-29
2023/01/28 08:06:53;;;;;;;8.07;5.23;;;;;;;;;;5035667;28;20218;-30
2023/01/28 08:09:20;;;;;;;6.50;4.47;;;;;;;;;;5036788;28;20210;-32
2023/01/28 08:11:47;;;;;;;6.07;4.30;;;;;;;;;;5037115;28;20211;-32
2023/01/28 08:27:07;;;;;;;7.37;5.20;;;;;;;;;;5075355;28;20687;-30
2023/01/28 08:29:35;;;;;;;6.13;4.73;;;;;;;;;;5077092;28;20201;-27
2023/01/28 08:32:02;;;;;;;7.67;5.00;;;;;;;;;;5076630;28;20213;-31
2023/01/28 08:47:17;;;;;;;7.27;4.70;;;;;;;;;;5055119;28;20230;-30
2023/01/28 08:49:44;;;;;;;7.50;4.83;;;;;;;;;;5056461;28;20206;-30
2023/01/28 08:52:11;;;;;;;8.77;6.70;;;;;;;;;;5056495;28;20225;-31
2023/01/28 09:07:31;;;;;;;8.70;6.20;;;;;;;;;;5054518;28;20222;-28
2023/01/28 09:09:59;;;;;;;8.93;5.77;;;;;;;;;;5055416;28;20213;-31
2023/01/28 09:12:26;;;;;;;9.90;6.20;;;;;;;;;;5055501;28;20205;-29
2023/01/28 09:28:13;;;;;;;17.37;8.77;;;;;;;;;;5055508;28;20535;-28
2023/01/28 09:30:40;;;;;;;9.53;6.30;;;;;;;;;;5055968;28;20206;-28
2023/01/28 09:46:03;;;;;;;8.93;6.40;;;;;;;;;;5033090;28;20217;-29
2023/01/28 09:48:32;;;;;;;8.57;5.67;;;;;;;;;;5035220;28;20202;-27
2023/01/28 09:51:00;;;;;;;11.17;6.53;;;;;;;;;;5035279;28;20217;-30
2023/01/28 10:06:24;;;;;;;8.37;6.57;;;;;;;;;;5053332;28;20217;-31
2023/01/28 10:09:09;;;;;;;9.07;6.17;;;;;;;;;;5054906;28;20190;-31
2023/01/28 10:11:44;;;;;;;5.77;3.23;;;;;;;;;;5054686;28;20190;-30
2023/01/28 10:27:04;;;;;;;10.40;6.63;;;;;;;;;;5033069;28;20218;-30
2023/01/28 10:29:34;;;;;;;13.17;6.50;;;;;;;;;;5034627;28;20207;-29
2023/01/28 10:32:06;;;;;;;10.50;7.03;;;;;;;;;;5034440;28;20191;-27
2023/01/28 10:47:39;;;;;;;10.33;6.37;;;;;;;;;;5112220;27;21103;-30
2023/01/28 10:50:07;;;;;;;10.27;6.53;;;;;;;;;;5112391;28;20277;-29
2023/01/28 11:05:28;;;;;;;6.20;4.03;;;;;;;;;;5108717;28;20219;-28
2023/01/28 11:08:05;;;;;;;8.47;5.60;;;;;;;;;;5111502;28;20200;-25
2023/01/28 11:10:33;;;;;;;9.37;6.13;;;;;;;;;;5111802;28;20207;-27
2023/01/28 11:26:02;;;;;;;7.07;5.23;;;;;;;;;;5047493;28;20301;-29
2023/01/28 11:28:30;;;;;;;8.00;5.60;;;;;;;;;;5050882;28;20194;-32
2023/01/28 11:30:58;;;;;;;12.70;8.17;;;;;;;;;;5050505;28;20214;-26
2023/01/28 11:46:53;;;;;;;9.60;5.70;;;;;;;;;;5063603;28;20227;-27
2023/01/28 11:49:25;;;;;;;12.80;6.70;;;;;;;;;;5057120;28;20191;-28
2023/01/28 11:51:57;;;;;;;10.00;6.17;;;;;;;;;;5056785;28;20194;-29
2023/01/28 12:07:22;;;;;;;8.40;5.13;;;;;;;;;;5073502;28;20221;-29
2023/01/28 12:09:56;;;;;;;11.80;6.50;;;;;;;;;;5076629;28;20196;-28
2023/01/28 12:25:30;;;;;;;10.37;5.57;;;;;;;;;;5033453;28;20215;-28
2023/01/28 12:28:01;;;;;;;10.97;7.10;;;;;;;;;;5036367;28;20193;-28
2023/01/28 12:30:43;;;;;;;11.27;6.83;;;;;;;;;;5035793;28;20219;-28
2023/01/28 12:46:05;;;;;;;10.53;6.43;;;;;;;;;;5072565;28;20213;-29
2023/01/28 12:48:35;;;;;;;12.60;7.30;;;;;;;;;;5076598;28;20194;-28
2023/01/28 12:51:04;;;;;;;11.77;6.63;;;;;;;;;;5076622;28;20186;-29
2023/01/28 13:06:28;;;;;;;8.57;6.27;;;;;;;;;;5013032;28;20711;-29
2023/01/28 13:08:59;;;;;;;11.93;7.77;;;;;;;;;;5016413;28;20192;-23
2023/01/28 13:11:31;;;;;;;11.67;6.80;;;;;;;;;;5015728;28;20221;-26
2023/01/28 13:26:44;;;;;;;12.70;7.57;;;;;;;;;;5052141;28;20217;-27
2023/01/28 13:29:35;;;;;;;12.20;6.53;;;;;;;;;;5054869;28;20698;-27
2023/01/28 13:32:04;;;;;;;13.07;7.37;;;;;;;;;;5039680;28;20210;-28
2023/01/28 13:47:33;;;;;;;7.43;5.20;;;;;;;;;;5013098;28;20271;-29
2023/01/28 13:50:02;;;;;;;10.00;5.70;;;;;;;;;;5014861;28;20630;-25
2023/01/28 14:05:38;;;;;;;8.50;5.57;;;;;;;;;;5052310;28;20285;-27
2023/01/28 14:08:19;;;;;;;8.90;5.57;;;;;;;;;;5054198;28;20700;-30
2023/01/28 14:10:52;;;;;;;6.70;4.47;;;;;;;;;;5052449;28;20301;-28
2023/01/28 14:26:19;;;;;;;6.60;4.20;;;;;;;;;;5071362;28;20229;-27
2023/01/28 14:28:50;;;;;;;6.47;4.13;;;;;;;;;;5074680;28;20197;-25
2023/01/28 14:31:21;;;;;;;5.73;4.20;;;;;;;;;;5074007;28;20735;-26
2023/01/28 14:46:44;;;;;;;7.10;4.73;;;;;;;;;;5050728;28;20347;-30
2023/01/28 14:49:19;;;;;;;4.50;3.03;;;;;;;;;;5053788;28;20186;-28
2023/01/28 14:51:56;;;;;;;8.17;4.57;;;;;;;;;;5053566;28;20190;-24
2023/01/28 15:07:20;;;;;;;6.30;4.40;;;;;;;;;;5051196;28;20226;-27
2023/01/28 15:09:48;;;;;;;6.67;4.30;;;;;;;;;;5054024;28;20656;-28
2023/01/28 15:12:16;;;;;;;4.27;3.60;;;;;;;;;;5053527;28;20202;-27
2023/01/28 15:27:36;;;;;;;7.77;4.60;;;;;;;;;;5074416;28;20213;-29
2023/01/28 15:30:03;;;;;;;8.03;4.23;;;;;;;;;;5076849;28;20212;-28
2023/01/28 15:45:28;;;;;;;5.10;3.30;;;;;;;;;;5035123;28;20214;-29
2023/01/28 15:50:59;;;;;;;4.53;3.07;;;;;;;;;;5036296;28;20170;-32
2023/01/28 16:09:24;;;;;;;4.53;3.83;;;;;;;;;;5055759;28;20169;-25
2023/01/28 16:11:51;;;;;;;3.50;3.20;;;;;;;;;;5056038;28;20202;-30
2023/01/28 16:30:15;;;;;;;5.23;3.37;;;;;;;;;;5015213;28;20202;-31
2023/01/28 16:37:54;;;;;;;4.43;3.33;;;;;;;;;;5121580;23;20242;-28
2023/01/28 16:40:22;;;;;;;5.47;3.33;;;;;;;;;;5089925;28;20215;-29
2023/01/28 16:45:55;;;;;;;6.27;3.53;;;;;;;;;;5109809;28;20171;-26
2023/01/28 16:48:22;;;;;;;5.10;3.90;;;;;;;;;;5110506;28;20230;-33
2023/01/28 16:50:49;;;;;;;3.80;3.00;;;;;;;;;;5111451;28;20261;-30
2023/01/28 16:53:19;;;;;;;5.90;3.37;;;;;;;;;;5109011;28;20220;-29
2023/01/28 16:55:47;;;;;;;4.40;3.10;;;;;;;;;;5108782;28;20192;-30
2023/01/28 16:58:14;;;;;;;5.17;3.20;;;;;;;;;;5110857;28;20203;-30
2023/01/28 17:00:41;;;;;;;4.83;3.27;;;;;;;;;;5108571;28;20203;-30
2023/01/28 17:03:11;;;;;;;4.60;3.17;;;;;;;;;;5110252;28;20224;-29
2023/01/28 17:05:38;;;;;;;4.10;3.20;;;;;;;;;;5110824;28;20215;-34
2023/01/28 17:08:06;;;;;;;3.63;3.33;;;;;;;;;;5111087;28;20211;-30
2023/01/28 17:10:33;;;;;;;4.90;3.70;;;;;;;;;;5108756;28;20233;-33
2023/01/28 17:13:00;;;;;;;3.93;3.47;;;;;;;;;;5110466;28;20224;-32
2023/01/28 17:15:27;;;;;;;6.37;3.87;;;;;;;;;;5109255;28;20203;-31
2023/01/28 17:17:54;;;;;;;4.30;3.10;;;;;;;;;;5109852;28;20231;-34
2023/01/28 17:20:23;;;;;;;4.80;3.30;;;;;;;;;;5110026;28;20208;-32
2023/01/28 17:22:50;;;;;;;4.03;3.10;;;;;;;;;;5108613;28;20211;-31
2023/01/28 17:25:17;;;;;;;3.53;2.80;;;;;;;;;;5109976;28;20666;-31
2023/01/28 17:27:44;;;;;;;4.03;3.03;;;;;;;;;;5109975;28;20271;-34
2023/01/28 17:30:12;;;;;;;3.60;3.03;;;;;;;;;;5111433;28;20254;-31
2023/01/28 17:35:47;;;;;;;11.67;6.43;;;;;;;;;;5111589;28;20168;-33
2023/01/28 17:38:15;;;;;;;8.73;5.50;;;;;;;;;;5110730;28;20718;-33
2023/01/28 17:40:42;;;;;;;8.13;4.80;;;;;;;;;;5109287;28;20200;-30
2023/01/28 17:43:09;;;;;;;7.90;4.80;;;;;;;;;;5112231;28;20224;-28
2023/01/28 17:45:36;;;;;;;6.80;4.50;;;;;;;;;;5110365;28;20214;-29
2023/01/28 17:48:03;;;;;;;4.57;3.87;;;;;;;;;;5112149;28;20680;-32
2023/01/28 17:50:30;;;;;;;4.37;3.30;;;;;;;;;;5111815;28;20299;-32
2023/01/28 17:52:58;;;;;;;5.37;4.00;;;;;;;;;;5108912;28;20223;-30
2023/01/28 17:55:26;;;;;;;4.33;3.53;;;;;;;;;;5111095;28;20207;-30
2023/01/28 17:57:53;;;;;;;5.23;3.80;;;;;;;;;;5110496;28;20224;-33
2023/01/28 18:00:21;;;;;;;5.07;3.80;;;;;;;;;;5108064;28;20204;-31
2023/01/28 18:02:51;;;;;;;3.83;3.40;;;;;;;;;;5109103;28;20200;-30
2023/01/28 18:05:18;;;;;;;4.37;3.53;;;;;;;;;;5110296;28;20198;-30
2023/01/28 18:07:45;;;;;;;5.77;4.10;;;;;;;;;;5108347;28;20210;-30
2023/01/28 18:10:14;;;;;;;5.57;3.50;;;;;;;;;;5108396;28;20211;-32
2023/01/28 18:12:41;;;;;;;4.27;3.53;;;;;;;;;;5109004;28;20242;-29
2023/01/28 18:15:09;;;;;;;3.30;3.00;;;;;;;;;;5107914;28;20208;-31
2023/01/28 18:17:36;;;;;;;4.37;3.27;;;;;;;;;;5108870;28;20223;-33
2023/01/28 18:20:05;;;;;;;5.10;4.00;;;;;;;;;;5109407;28;20199;-30
2023/01/28 18:22:32;;;;;;;3.93;3.40;;;;;;;;;;5109262;28;20215;-28
2023/01/28 18:24:59;;;;;;;4.03;3.37;;;;;;;;;;5107436;28;20204;-32
2023/01/28 18:27:27;;;;;;;4.03;3.20;;;;;;;;;;5109121;28;20216;-32
2023/01/28 18:29:56;;;;;;;5.27;3.70;;;;;;;;;;5107877;28;20200;-32
2023/01/28 18:32:23;;;;;;;3.67;3.27;;;;;;;;;;5108723;28;20219;-32
2023/01/28 18:34:50;;;;;;;7.67;4.47;;;;;;;;;;5109500;28;20231;-33
2023/01/28 18:37:17;;;;;;;4.20;3.50;;;;;;;;;;5109671;28;20579;-33
2023/01/28 18:39:45;;;;;;;5.90;5.30;;;;;;;;;;5107499;28;20203;-30
2023/01/28 18:42:12;;;;;;;4.30;3.77;;;;;;;;;;5108668;28;20211;-30
2023/01/28 18:47:44;;;;;;;5.03;4.27;;;;;;;;;;5109317;28;20202;-33
2023/01/28 18:50:11;;;;;;;3.97;3.20;;;;;;;;;;5108842;28;20200;-31
2023/01/28 18:52:38;;;;;;;5.47;4.23;;;;;;;;;;5107599;28;20317;-34
2023/01/28 18:55:05;;;;;;;5.53;3.83;;;;;;;;;;5109571;28;20200;-29
2023/01/28 18:57:32;;;;;;;5.40;4.90;;;;;;;;;;5110331;28;20216;-29
2023/01/28 19:00:00;;;;;;;6.80;5.33;;;;;;;;;;5111995;28;20211;-31
2023/01/28 19:02:27;;;;;;;4.90;3.80;;;;;;;;;;5113413;28;20211;-33
2023/01/28 19:07:59;;;;;;;7.03;4.77;;;;;;;;;;5113780;28;20183;-30
2023/01/28 19:10:26;;;;;;;5.30;4.80;;;;;;;;;;5112346;28;20212;-31
2023/01/28 19:12:54;;;;;;;6.60;4.50;;;;;;;;;;5114867;28;20224;-32
2023/01/28 19:15:21;;;;;;;5.23;4.70;;;;;;;;;;5113854;28;20226;-31
2023/01/28 19:17:48;;;;;;;5.50;4.30;;;;;;;;;;5115295;28;20215;-30
2023/01/28 19:20:16;;;;;;;4.23;3.80;;;;;;;;;;5115570;28;20203;-32
2023/01/28 19:22:44;;;;;;;4.47;4.03;;;;;;;;;;5114896;28;20215;-29
2023/01/28 19:25:12;;;;;;;6.17;4.77;;;;;;;;;;5115107;28;20208;-28
2023/01/28 19:27:39;;;;;;;6.67;5.00;;;;;;;;;;5115370;28;20200;-35
2023/01/28 19:30:07;;;;;;;7.40;5.97;;;;;;;;;;5113254;28;20212;-31
2023/01/28 19:32:34;;;;;;;7.03;5.00;;;;;;;;;;5113790;28;20200;-32
2023/01/28 19:35:01;;;;;;;6.63;4.83;;;;;;;;;;5113700;28;20223;-30
2023/01/28 19:37:29;;;;;;;5.87;4.63;;;;;;;;;;5113484;28;20220;-31
2023/01/28 19:39:56;;;;;;;5.93;4.60;;;;;;;;;;5112392;28;20207;-30
2023/01/28 19:42:24;;;;;;;6.73;5.00;;;;;;;;;;5113281;28;20218;-32
2023/01/28 19:44:52;;;;;;;7.00;5.20;;;;;;;;;;5112423;28;20227;-30
2023/01/28 19:47:19;;;;;;;7.67;4.33;;;;;;;;;;5112659;28;20336;-31
2023/01/28 19:49:46;;;;;;;5.13;4.63;;;;;;;;;;5113050;28;20204;-33
2023/01/28 19:52:13;;;;;;;7.70;5.00;;;;;;;;;;5112590;28;20204;-33
2023/01/28 19:54:40;;;;;;;6.80;4.93;;;;;;;;;;5112418;28;20223;-29
2023/01/28 19:57:07;;;;;;;5.60;4.17;;;;;;;;;;5112803;28;20634;-31
2023/01/28 19:59:36;;;;;;;6.93;4.30;;;;;;;;;;5112148;28;20204;-33
2023/01/28 20:02:03;;;;;;;6.63;4.70;;;;;;;;;;5112564;28;20211;-33
2023/01/28 20:04:30;;;;;;;6.17;4.80;;;;;;;;;;5112443;28;20224;-32
2023/01/28 20:06:57;;;;;;;6.63;4.40;;;;;;;;;;5113951;28;20218;-28
2023/01/28 20:09:25;;;;;;;5.67;4.70;;;;;;;;;;5111043;28;20204;-29
2023/01/28 20:11:52;;;;;;;9.53;4.97;;;;;;;;;;5112509;28;20208;-33
2023/01/28 20:14:20;;;;;;;6.80;5.13;;;;;;;;;;5111698;28;20223;-31
2023/01/28 20:16:48;;;;;;;8.57;5.50;;;;;;;;;;5112091;28;20214;-31
2023/01/28 20:19:16;;;;;;;8.17;4.60;;;;;;;;;;5112335;28;20204;-33
2023/01/28 20:24:47;;;;;;;6.53;4.83;;;;;;;;;;5112495;28;20227;-32
2023/01/28 20:27:15;;;;;;;7.00;5.03;;;;;;;;;;5113913;28;20200;-32
2023/01/28 20:32:47;;;;;;;5.13;4.63;;;;;;;;;;5114112;28;20241;-33
2023/01/28 20:35:14;;;;;;;5.67;4.60;;;;;;;;;;5114906;28;20215;-34
2023/01/28 20:37:41;;;;;;;6.93;4.97;;;;;;;;;;5114023;28;20594;-31
2023/01/28 20:43:12;;;;;;;5.80;4.40;;;;;;;;;;5111580;28;20244;-33
2023/01/28 20:45:39;;;;;;;7.10;4.50;;;;;;;;;;5109713;28;20216;-31
2023/01/28 20:48:07;;;;;;;6.27;4.77;;;;;;;;;;5110595;28;20211;-31
2023/01/28 20:50:35;;;;;;;6.03;4.50;;;;;;;;;;5111307;28;20214;-30
2023/01/28 20:53:03;;;;;;;5.83;4.73;;;;;;;;;;5109502;28;20269;-30
2023/01/28 20:55:30;;;;;;;8.07;5.23;;;;;;;;;;5110986;28;20261;-31
2023/01/28 20:57:57;;;;;;;5.80;4.57;;;;;;;;;;5111422;28;20231;-29
2023/01/28 21:00:24;;;;;;;6.37;5.33;;;;;;;;;;5111427;28;20487;-34
2023/01/28 21:05:56;;;;;;;5.50;4.30;;;;;;;;;;5113604;28;20167;-31
2023/01/28 21:08:23;;;;;;;7.23;5.33;;;;;;;;;;5114570;28;20207;-30
2023/01/28 21:10:50;;;;;;;5.90;4.77;;;;;;;;;;5113831;28;20654;-33
2023/01/28 21:13:17;;;;;;;6.20;4.80;;;;;;;;;;5113399;28;20220;-34
2023/01/28 21:15:51;;;;;;;6.90;4.80;;;;;;;;;;5110560;28;20564;-31
2023/01/28 21:21:24;;;;;;;5.23;4.17;;;;;;;;;;5111865;28;20213;-34
2023/01/28 21:23:53;;;;;;;8.30;4.87;;;;;;;;;;5112739;28;20284;-31
2023/01/28 21:29:23;;;;;;;8.07;4.80;;;;;;;;;;5110064;28;20171;-30
2023/01/28 21:31:50;;;;;;;5.07;4.50;;;;;;;;;;5112180;28;20215;-31
2023/01/28 21:34:18;;;;;;;6.33;4.20;;;;;;;;;;5112369;28;20216;-34
2023/01/28 21:36:46;;;;;;;6.07;4.73;;;;;;;;;;5112709;28;20211;-33
2023/01/28 21:39:13;;;;;;;5.40;4.30;;;;;;;;;;5111056;28;20236;-31
2023/01/28 21:44:44;;;;;;;7.40;5.10;;;;;;;;;;5110240;28;20201;-30
2023/01/28 21:47:12;;;;;;;4.93;4.30;;;;;;;;;;5110372;28;20207;-29
2023/01/28 21:49:39;;;;;;;5.20;4.50;;;;;;;;;;5111822;28;20208;-33
2023/01/28 21:52:08;;;;;;;5.80;4.23;;;;;;;;;;5113003;28;20210;-34
2023/01/28 21:57:38;;;;;;;5.53;4.13;;;;;;;;;;5111470;28;20207;-32
2023/01/28 22:00:07;;;;;;;6.07;4.17;;;;;;;;;;5110017;28;20211;-31
2023/01/28 22:05:38;;;;;;;4.33;3.93;;;;;;;;;;5111832;28;20604;-29
2023/01/28 22:08:07;;;;;;;5.43;4.17;;;;;;;;;;5112021;28;20200;-31